Time;durP1;ratioP1;P1;durP2;ratioP2;P2;SDS_P1;SDS_P2;PMS_P1;PMS_P2;Temp;Humidity;BMP_temperature;BMP_pressure;BME280_temperature;BME280_humidity;BME280_pressure;Samples;Min_cycle;Max_cycle;Signal;HPM_P1;HPM_P2
2021/05/31 00:00:32;;;;;;;23.23;20.83;;;;;21.00;101287.00;;;;2046132;28;20212;-53
2021/05/31 00:01:32;;;;;;;26.80;22.03;;;;;21.00;101286.00;;;;2045447;28;20216;-53
2021/05/31 00:02:33;;;;;;;22.20;20.00;;;;;21.00;101277.00;;;;2046314;28;20629;-53
2021/05/31 00:03:33;;;;;;;21.30;18.63;;;;;21.00;101287.00;;;;2046039;28;20216;-54
2021/05/31 00:04:33;;;;;;;22.83;20.47;;;;;21.00;101278.00;;;;2046321;28;20867;-54
2021/05/31 00:05:34;;;;;;;23.07;20.77;;;;;21.00;101278.00;;;;2046259;28;20701;-54
2021/05/31 00:06:55;;;;;;;21.97;19.67;;;;;20.90;101278.00;;;;2050446;28;20646;-54
2021/05/31 00:07:55;;;;;;;21.25;19.05;;;;;21.00;101280.00;;;;2045513;29;20211;-54
2021/05/31 00:08:55;;;;;;;21.53;19.27;;;;;21.00;101284.00;;;;2047293;28;20217;-53
2021/05/31 00:09:56;;;;;;;21.60;19.37;;;;;21.00;101287.00;;;;2051141;28;20288;-54
2021/05/31 00:10:56;;;;;;;20.80;18.43;;;;;21.00;101281.00;;;;2047151;28;20220;-54
2021/05/31 00:11:58;;;;;;;20.50;18.30;;;;;21.00;101282.00;;;;2046215;28;20212;-53
2021/05/31 00:12:58;;;;;;;20.98;18.88;;;;;21.00;101282.00;;;;2046033;28;20740;-51
2021/05/31 00:13:59;;;;;;;20.47;18.43;;;;;21.00;101280.00;;;;2052193;28;20303;-53
2021/05/31 00:14:59;;;;;;;19.90;17.80;;;;;21.00;101278.00;;;;2054023;28;20220;-53
2021/05/31 00:16:00;;;;;;;20.87;17.43;;;;;21.00;101282.00;;;;2053342;28;20220;-53
2021/05/31 00:17:00;;;;;;;19.50;17.50;;;;;21.00;101279.00;;;;2046532;28;20225;-53
2021/05/31 00:18:01;;;;;;;18.20;16.37;;;;;21.00;101275.00;;;;2037256;29;20224;-52
2021/05/31 00:19:03;;;;;;;19.30;17.30;;;;;21.00;101273.00;;;;2044805;29;20228;-50
2021/05/31 00:20:08;;;;;;;18.58;16.67;;;;;21.00;101276.00;;;;2048744;28;20216;-54
2021/05/31 00:21:08;;;;;;;18.25;16.27;;;;;21.00;101277.00;;;;2045953;28;20311;-53
2021/05/31 00:22:08;;;;;;;17.43;15.83;;;;;21.00;101278.00;;;;2048496;28;20224;-54
2021/05/31 00:23:09;;;;;;;18.13;16.20;;;;;21.00;101278.00;;;;2053792;28;20279;-51
2021/05/31 00:24:09;;;;;;;16.43;14.80;;;;;21.00;101275.00;;;;2055319;28;20700;-52
2021/05/31 00:25:10;;;;;;;16.73;15.07;;;;;21.00;101276.00;;;;2055395;28;20569;-53
2021/05/31 00:26:10;;;;;;;17.53;15.83;;;;;21.00;101275.00;;;;2055068;28;20208;-54
2021/05/31 00:27:11;;;;;;;17.73;15.80;;;;;21.00;101277.00;;;;2055494;28;20216;-52
2021/05/31 00:28:12;;;;;;;17.10;15.40;;;;;21.00;101278.00;;;;2055381;28;20219;-53
2021/05/31 00:29:13;;;;;;;16.42;14.73;;;;;21.00;101268.00;;;;2055353;28;20220;-54
2021/05/31 00:30:13;;;;;;;16.37;14.77;;;;;21.00;101274.00;;;;2047543;29;20212;-53
2021/05/31 00:31:14;;;;;;;15.57;13.97;;;;;21.00;101270.00;;;;2046309;28;20221;-54
2021/05/31 00:32:14;;;;;;;16.40;14.67;;;;;21.00;101271.00;;;;2055842;28;20216;-54
2021/05/31 00:33:14;;;;;;;15.90;14.40;;;;;21.00;101268.00;;;;2055666;28;20323;-54
2021/05/31 00:34:15;;;;;;;15.27;13.70;;;;;21.00;101286.00;;;;2052942;28;21037;-55
2021/05/31 00:35:15;;;;;;;15.40;13.90;;;;;21.00;101265.00;;;;2038913;29;20726;-53
2021/05/31 00:36:16;;;;;;;17.23;15.43;;;;;21.00;101270.00;;;;2038801;29;20221;-53
2021/05/31 00:37:17;;;;;;;17.35;15.65;;;;;21.00;101267.00;;;;2047203;29;20216;-56
2021/05/31 00:38:17;;;;;;;15.27;13.87;;;;;21.00;101271.00;;;;2047420;28;20589;-53
2021/05/31 00:39:19;;;;;;;14.73;13.33;;;;;21.00;101263.00;;;;2047399;28;20303;-54
2021/05/31 00:40:19;;;;;;;15.48;13.98;;;;;21.00;101266.00;;;;2052254;28;20723;-53
2021/05/31 00:41:21;;;;;;;15.03;13.57;;;;;21.00;101256.00;;;;2049206;28;20224;-54
2021/05/31 00:42:21;;;;;;;13.82;12.38;;;;;21.00;101209.00;;;;2050524;28;21319;-52
2021/05/31 00:43:21;;;;;;;13.73;12.47;;;;;21.00;101258.00;;;;2046910;28;20237;-51
2021/05/31 00:44:22;;;;;;;14.27;12.97;;;;;21.00;101255.00;;;;2047495;28;20224;-53
2021/05/31 00:45:23;;;;;;;13.00;11.63;;;;;21.00;101262.00;;;;2047211;28;20213;-55
2021/05/31 00:46:24;;;;;;;16.50;14.00;;;;;21.00;101262.00;;;;2047472;29;21021;-54
2021/05/31 00:47:24;;;;;;;13.13;11.83;;;;;21.00;101262.00;;;;2050779;28;20212;-54
2021/05/31 00:48:24;;;;;;;14.90;13.07;;;;;21.00;101264.00;;;;2055298;28;20455;-54
2021/05/31 00:49:27;;;;;;;13.43;12.13;;;;;21.00;101260.00;;;;2055281;28;20846;-54
2021/05/31 00:50:27;;;;;;;13.18;11.68;;;;;21.00;101260.00;;;;2055112;28;20223;-54
2021/05/31 00:51:28;;;;;;;12.70;11.40;;;;;21.00;101255.00;;;;2054490;28;20216;-54
2021/05/31 00:52:28;;;;;;;13.40;12.00;;;;;21.00;101261.00;;;;2055217;28;20212;-53
2021/05/31 00:53:29;;;;;;;14.00;12.70;;;;;21.00;101262.00;;;;2046565;28;20721;-53
2021/05/31 00:54:29;;;;;;;12.33;11.13;;;;;21.00;101257.00;;;;2046849;28;20971;-55
2021/05/31 00:55:30;;;;;;;11.73;10.57;;;;;21.00;101261.00;;;;2054459;28;20845;-51
2021/05/31 00:56:30;;;;;;;12.40;11.13;;;;;21.00;101257.00;;;;2055165;28;20262;-53
2021/05/31 00:57:30;;;;;;;13.00;11.70;;;;;21.00;101261.00;;;;2046512;29;20216;-54
2021/05/31 00:58:31;;;;;;;12.80;11.60;;;;;21.00;101255.00;;;;2046460;29;20217;-54
2021/05/31 00:59:31;;;;;;;12.70;11.60;;;;;21.00;101257.00;;;;2055147;28;20212;-54
2021/05/31 01:00:32;;;;;;;12.33;11.07;;;;;21.00;101264.00;;;;2055051;28;20239;-52
2021/05/31 01:01:32;;;;;;;11.50;10.30;;;;;21.00;101255.00;;;;2054342;28;20323;-53
2021/05/31 01:02:32;;;;;;;12.43;11.23;;;;;21.00;101252.00;;;;2055208;28;20724;-54
2021/05/31 01:03:33;;;;;;;11.20;10.17;;;;;21.00;101256.00;;;;2055164;28;20589;-54
2021/05/31 01:04:33;;;;;;;11.60;10.27;;;;;21.00;101256.00;;;;2046653;29;20209;-55
2021/05/31 01:05:34;;;;;;;12.23;11.10;;;;;21.00;101255.00;;;;2046606;29;20707;-54
2021/05/31 01:06:36;;;;;;;11.70;10.60;;;;;21.00;101264.00;;;;2054894;28;20299;-51
2021/05/31 01:07:41;;;;;;;11.00;9.90;;;;;21.00;101269.00;;;;2055065;28;20304;-52
2021/05/31 01:08:45;;;;;;;11.20;10.15;;;;;20.90;101261.00;;;;2055073;28;20220;-53
2021/05/31 01:09:59;;;;;;;10.65;9.50;;;;;21.00;101266.00;;;;2054170;28;20606;-54
2021/05/31 01:11:12;;;;;;;10.93;9.93;;;;;21.00;101261.00;;;;2040752;29;20225;-50
2021/05/31 01:12:31;;;;;;;10.70;9.77;;;;;20.90;101255.00;;;;2045822;28;20207;-51
2021/05/31 01:13:40;;;;;;;10.65;9.75;;;;;20.90;101255.00;;;;2051613;28;20631;-53
2021/05/31 01:14:50;;;;;;;11.52;10.43;;;;;20.90;101256.00;;;;2046677;29;20221;-52
2021/05/31 01:16:00;;;;;;;10.27;9.27;;;;;20.90;101250.00;;;;2040023;29;20245;-54
2021/05/31 01:17:06;;;;;;;10.15;9.25;;;;;20.90;101257.00;;;;2046417;29;20212;-53
2021/05/31 01:18:19;;;;;;;11.05;10.05;;;;;20.90;101254.00;;;;2048230;28;20216;-53
2021/05/31 01:19:43;;;;;;;11.77;10.07;;;;;20.90;101261.00;;;;2045637;29;20741;-54
2021/05/31 01:21:20;;;;;;;10.40;9.43;;;;;20.90;101257.00;;;;2029433;29;20222;-54
2021/05/31 01:22:25;;;;;;;10.13;9.18;;;;;20.90;101255.00;;;;2054208;28;20673;-54
2021/05/31 01:23:28;;;;;;;10.35;9.25;;;;;20.90;101256.00;;;;2054294;28;20220;-53
2021/05/31 01:24:50;;;;;;;9.15;8.25;;;;;20.90;101254.00;;;;2053664;28;20589;-52
2021/05/31 01:26:19;;;;;;;10.57;9.57;;;;;20.90;101254.00;;;;2054353;28;20216;-53
2021/05/31 01:27:20;;;;;;;9.38;8.50;;;;;20.90;101256.00;;;;2045610;29;20224;-54
2021/05/31 01:28:41;;;;;;;9.43;8.53;;;;;20.90;101257.00;;;;2045875;29;20284;-54
2021/05/31 01:29:43;;;;;;;9.77;8.85;;;;;20.90;101253.00;;;;2050639;28;20226;-54
2021/05/31 01:30:44;;;;;;;10.15;9.18;;;;;20.90;101254.00;;;;2039231;29;20213;-54
2021/05/31 01:31:48;;;;;;;9.52;8.63;;;;;20.90;101250.00;;;;2022685;29;20218;-51
2021/05/31 01:32:52;;;;;;;9.23;8.48;;;;;20.90;101268.00;;;;2027706;29;20346;-54
2021/05/31 01:33:53;;;;;;;10.20;9.20;;;;;20.90;101254.00;;;;2039393;29;20754;-54
2021/05/31 01:34:53;;;;;;;9.13;8.27;;;;;20.90;101259.00;;;;2038078;29;20281;-52
2021/05/31 01:35:53;;;;;;;8.67;7.87;;;;;20.90;101257.00;;;;2046437;29;20633;-53
2021/05/31 01:37:08;;;;;;;9.47;8.67;;;;;20.90;101263.00;;;;2038372;29;20221;-54
2021/05/31 01:38:08;;;;;;;8.90;8.00;;;;;20.90;101246.00;;;;2042271;28;20209;-53
2021/05/31 01:39:09;;;;;;;9.37;8.57;;;;;20.90;101248.00;;;;2046241;29;20764;-54
2021/05/31 01:40:10;;;;;;;8.77;7.97;;;;;20.90;101256.00;;;;2038303;29;20722;-52
2021/05/31 01:41:11;;;;;;;8.50;7.70;;;;;20.90;101261.00;;;;2037655;29;20209;-54
2021/05/31 01:42:11;;;;;;;8.40;7.60;;;;;20.90;101265.00;;;;2046580;28;20643;-54
2021/05/31 01:43:12;;;;;;;8.23;7.43;;;;;20.90;101255.00;;;;2046104;28;20220;-54
2021/05/31 01:44:13;;;;;;;9.33;8.03;;;;;20.90;101261.00;;;;2046355;29;20224;-54
2021/05/31 01:45:14;;;;;;;12.75;8.02;;;;;20.90;101254.00;;;;2054796;28;20239;-53
2021/05/31 01:46:14;;;;;;;8.30;7.60;;;;;20.90;101259.00;;;;2046371;29;20284;-54
2021/05/31 01:47:15;;;;;;;10.10;8.13;;;;;20.90;101264.00;;;;2046394;29;20208;-54
2021/05/31 01:48:15;;;;;;;8.40;7.70;;;;;20.90;101260.00;;;;2054688;28;21014;-54
2021/05/31 01:49:15;;;;;;;8.50;7.70;;;;;20.90;101258.00;;;;2038258;29;20300;-51
2021/05/31 01:50:16;;;;;;;8.17;7.57;;;;;20.90;101261.00;;;;2022660;29;20270;-52
2021/05/31 01:51:16;;;;;;;8.07;7.23;;;;;20.90;101251.00;;;;2037407;29;20214;-54
2021/05/31 01:52:16;;;;;;;8.07;7.37;;;;;20.90;101254.00;;;;2046137;29;20224;-54
2021/05/31 01:53:17;;;;;;;8.83;8.03;;;;;20.90;101253.00;;;;2038148;29;20225;-53
2021/05/31 01:54:17;;;;;;;7.90;7.20;;;;;20.90;101252.00;;;;2038187;29;20243;-53
2021/05/31 01:55:17;;;;;;;7.90;7.20;;;;;20.90;101258.00;;;;2030415;29;20258;-55
2021/05/31 01:56:18;;;;;;;8.10;7.30;;;;;20.90;101256.00;;;;2046151;29;20228;-52
2021/05/31 01:57:19;;;;;;;7.67;6.97;;;;;20.90;101253.00;;;;2054750;28;20215;-54
2021/05/31 01:58:19;;;;;;;8.52;7.60;;;;;20.90;101250.00;;;;2054736;28;20224;-53
2021/05/31 01:59:20;;;;;;;7.20;6.60;;;;;20.90;101255.00;;;;2037062;29;20214;-53
2021/05/31 02:00:20;;;;;;;8.53;7.67;;;;;20.90;101251.00;;;;2027548;29;20218;-54
2021/05/31 02:01:21;;;;;;;7.90;7.10;;;;;20.90;101250.00;;;;2035200;29;20237;-54
2021/05/31 02:02:21;;;;;;;8.00;7.30;;;;;20.90;101246.00;;;;2038126;29;20221;-51
2021/05/31 02:03:22;;;;;;;7.87;7.17;;;;;20.90;101244.00;;;;2045993;28;20228;-54
2021/05/31 02:04:22;;;;;;;7.93;7.20;;;;;20.90;101242.00;;;;2046212;29;20311;-52
2021/05/31 02:05:23;;;;;;;7.70;7.00;;;;;20.90;101245.00;;;;2054745;28;20258;-54
2021/05/31 02:06:23;;;;;;;7.87;7.17;;;;;20.90;101245.00;;;;2051195;28;20806;-54
2021/05/31 02:07:23;;;;;;;8.57;7.70;;;;;20.90;101248.00;;;;2046677;28;20678;-54
2021/05/31 02:08:24;;;;;;;7.73;7.03;;;;;20.90;101243.00;;;;2054653;28;20622;-55
2021/05/31 02:09:24;;;;;;;8.20;7.40;;;;;20.90;101247.00;;;;2054594;28;20703;-52
2021/05/31 02:10:24;;;;;;;7.70;7.00;;;;;20.90;101251.00;;;;2054664;28;20307;-53
2021/05/31 02:11:27;;;;;;;7.10;6.50;;;;;20.90;101248.00;;;;2053725;28;20681;-55
2021/05/31 02:12:31;;;;;;;7.20;6.60;;;;;20.90;101250.00;;;;2054675;28;20222;-53
2021/05/31 02:13:31;;;;;;;7.78;7.07;;;;;20.90;101239.00;;;;2045772;28;20359;-54
2021/05/31 02:15:12;;;;;;;7.23;6.50;;;;;20.90;101244.00;;;;2023603;29;20937;-54
2021/05/31 02:16:15;;;;;;;6.20;5.70;;;;;20.90;101251.00;;;;2044293;28;20238;-51
2021/05/31 02:17:36;;;;;;;7.40;6.70;;;;;20.90;101247.00;;;;2038268;29;20294;-54
2021/05/31 02:18:41;;;;;;;7.20;6.60;;;;;20.90;101244.00;;;;2035048;29;20236;-51
2021/05/31 02:19:42;;;;;;;7.97;7.20;;;;;20.90;101246.00;;;;2038800;29;20225;-53
2021/05/31 02:20:43;;;;;;;7.67;6.97;;;;;20.90;101234.00;;;;2038581;29;20217;-54
2021/05/31 02:21:44;;;;;;;6.80;6.20;;;;;20.90;101244.00;;;;2037477;29;20671;-54
2021/05/31 02:22:57;;;;;;;6.83;6.23;;;;;20.90;101234.00;;;;2037626;29;20226;-51
2021/05/31 02:23:58;;;;;;;7.03;6.40;;;;;20.90;101236.00;;;;2047517;28;20235;-51
2021/05/31 02:24:58;;;;;;;6.23;5.73;;;;;20.90;101240.00;;;;2038069;29;20801;-54
2021/05/31 02:25:58;;;;;;;6.73;6.20;;;;;20.90;101224.00;;;;2022488;29;20673;-51
2021/05/31 02:26:59;;;;;;;6.90;6.30;;;;;20.90;101247.00;;;;2038133;29;20209;-53
2021/05/31 02:27:59;;;;;;;6.67;6.07;;;;;20.90;101244.00;;;;2038192;29;20217;-54
2021/05/31 02:28:59;;;;;;;6.73;6.13;;;;;20.90;101238.00;;;;2037961;29;20218;-54
2021/05/31 02:30:00;;;;;;;7.17;6.47;;;;;20.90;101242.00;;;;2040690;29;20218;-53
2021/05/31 02:31:02;;;;;;;6.40;5.90;;;;;20.90;101243.00;;;;2039494;29;20217;-54
2021/05/31 02:32:05;;;;;;;7.00;6.32;;;;;20.90;101235.00;;;;2040017;29;20332;-54
2021/05/31 02:33:06;;;;;;;7.35;6.68;;;;;20.90;101236.00;;;;2046521;28;20232;-54
2021/05/31 02:34:07;;;;;;;6.70;6.10;;;;;20.90;101232.00;;;;2046674;28;20709;-54
2021/05/31 02:35:10;;;;;;;8.23;6.40;;;;;20.90;101225.00;;;;2045499;29;20248;-54
2021/05/31 02:36:11;;;;;;;6.72;6.07;;;;;20.90;101237.00;;;;2045943;29;20580;-54
2021/05/31 02:37:12;;;;;;;6.40;5.80;;;;;20.90;101235.00;;;;2046237;28;20272;-53
2021/05/31 02:38:12;;;;;;;6.60;6.00;;;;;20.90;101228.00;;;;2037529;29;20217;-54
2021/05/31 02:39:13;;;;;;;8.13;6.20;;;;;20.90;101225.00;;;;2038026;29;20272;-56
2021/05/31 02:40:13;;;;;;;6.53;5.93;;;;;20.90;101239.00;;;;2037962;29;20727;-53
2021/05/31 02:41:14;;;;;;;6.13;5.53;;;;;20.90;101238.00;;;;2037154;29;20292;-55
2021/05/31 02:42:14;;;;;;;5.90;5.40;;;;;20.90;101225.00;;;;2046483;28;20515;-55
2021/05/31 02:43:15;;;;;;;6.80;6.20;;;;;20.90;101234.00;;;;2046172;28;20219;-54
2021/05/31 02:44:15;;;;;;;6.53;6.03;;;;;20.90;101241.00;;;;2045874;28;20220;-53
2021/05/31 02:45:17;;;;;;;5.87;5.37;;;;;20.90;101230.00;;;;2046424;28;20216;-53
2021/05/31 02:46:18;;;;;;;6.20;5.70;;;;;20.90;101228.00;;;;2046518;28;20224;-53
2021/05/31 02:47:18;;;;;;;6.10;5.60;;;;;20.90;101237.00;;;;2046286;29;20304;-52
2021/05/31 02:48:18;;;;;;;6.63;6.03;;;;;20.90;101235.00;;;;2046431;28;20543;-53
2021/05/31 02:49:19;;;;;;;6.40;5.90;;;;;20.80;101223.00;;;;2045858;28;20212;-54
2021/05/31 02:50:19;;;;;;;6.33;5.80;;;;;20.90;101231.00;;;;2046092;29;20217;-52
2021/05/31 02:51:20;;;;;;;6.40;5.90;;;;;20.80;101231.00;;;;2045348;29;20713;-53
2021/05/31 02:52:20;;;;;;;6.13;5.53;;;;;20.80;101237.00;;;;2046528;28;20209;-54
2021/05/31 02:53:20;;;;;;;6.23;5.70;;;;;20.90;101235.00;;;;2046340;28;20680;-54
2021/05/31 02:54:21;;;;;;;6.20;5.60;;;;;20.90;101228.00;;;;2046449;29;20225;-54
2021/05/31 02:55:22;;;;;;;5.13;4.73;;;;;20.90;101232.00;;;;2046671;28;20224;-54
2021/05/31 02:56:23;;;;;;;5.60;5.10;;;;;20.90;101235.00;;;;2046173;28;20243;-53
2021/05/31 02:57:23;;;;;;;6.23;5.63;;;;;20.90;101228.00;;;;2045664;29;20557;-53
2021/05/31 02:58:23;;;;;;;5.23;4.83;;;;;20.90;101229.00;;;;2046575;28;20204;-51
2021/05/31 02:59:24;;;;;;;5.27;4.87;;;;;20.80;101228.00;;;;2045411;28;20217;-53
2021/05/31 03:00:26;;;;;;;5.83;5.33;;;;;20.90;101244.00;;;;2045592;28;20296;-54
2021/05/31 03:01:26;;;;;;;6.07;5.47;;;;;20.90;101233.00;;;;2044924;29;20201;-54
2021/05/31 03:02:27;;;;;;;5.80;5.30;;;;;20.90;101221.00;;;;2046935;28;20578;-55
2021/05/31 03:03:27;;;;;;;5.90;5.40;;;;;20.90;101215.00;;;;2046369;28;20274;-54
2021/05/31 03:04:27;;;;;;;6.10;5.50;;;;;20.80;101226.00;;;;2046502;28;20244;-54
2021/05/31 03:05:29;;;;;;;6.00;5.50;;;;;20.80;101227.00;;;;2046583;28;20205;-51
2021/05/31 03:06:29;;;;;;;6.05;5.55;;;;;20.90;101234.00;;;;2046358;28;20228;-54
2021/05/31 03:07:29;;;;;;;5.53;5.00;;;;;20.90;101229.00;;;;2046063;28;20559;-54
2021/05/31 03:08:30;;;;;;;5.30;4.90;;;;;20.80;101227.00;;;;2046383;28;20213;-52
2021/05/31 03:09:30;;;;;;;5.60;5.20;;;;;20.80;101231.00;;;;2044927;28;20217;-54
2021/05/31 03:10:31;;;;;;;5.57;5.07;;;;;20.80;101227.00;;;;2045920;28;20639;-54
2021/05/31 03:11:31;;;;;;;5.68;5.20;;;;;20.80;101234.00;;;;2044807;28;20227;-54
2021/05/31 03:12:32;;;;;;;5.37;4.97;;;;;20.80;101228.00;;;;2045787;28;20220;-53
2021/05/31 03:13:32;;;;;;;5.50;5.10;;;;;20.90;101227.00;;;;2045777;28;22893;-54
2021/05/31 03:14:32;;;;;;;5.47;5.07;;;;;20.80;101227.00;;;;2045718;28;20275;-54
2021/05/31 03:15:33;;;;;;;5.73;5.17;;;;;20.80;101233.00;;;;2045923;28;20255;-54
2021/05/31 03:16:33;;;;;;;5.77;5.27;;;;;20.80;101227.00;;;;2045854;28;20231;-55
2021/05/31 03:17:34;;;;;;;6.20;5.70;;;;;20.80;101225.00;;;;2045782;28;20224;-54
2021/05/31 03:18:34;;;;;;;5.70;5.23;;;;;20.80;101231.00;;;;2045110;28;20216;-53
2021/05/31 03:19:34;;;;;;;5.90;5.20;;;;;20.80;101228.00;;;;2046140;28;20244;-53
2021/05/31 03:20:35;;;;;;;5.70;5.20;;;;;20.80;101223.00;;;;2045782;28;20220;-53
2021/05/31 03:21:35;;;;;;;4.87;4.47;;;;;20.80;101228.00;;;;2045040;28;20213;-54
2021/05/31 03:22:35;;;;;;;4.93;4.53;;;;;20.80;101231.00;;;;2045821;28;20233;-54
2021/05/31 03:23:36;;;;;;;6.17;5.63;;;;;20.90;101232.00;;;;2045800;28;20223;-54
2021/05/31 03:24:36;;;;;;;5.67;5.10;;;;;20.80;101227.00;;;;2045228;28;20816;-54
2021/05/31 03:25:36;;;;;;;5.70;5.20;;;;;20.80;101228.00;;;;2045791;29;20601;-52
2021/05/31 03:26:37;;;;;;;6.00;5.47;;;;;20.80;101234.00;;;;2045162;28;20220;-52
2021/05/31 03:27:37;;;;;;;5.13;4.73;;;;;20.80;101235.00;;;;2045472;28;20220;-51
2021/05/31 03:28:37;;;;;;;6.00;5.50;;;;;20.80;101233.00;;;;2045970;28;20606;-52
2021/05/31 03:29:38;;;;;;;5.33;4.83;;;;;20.80;101236.00;;;;2048966;28;20216;-51
2021/05/31 03:30:38;;;;;;;5.10;4.70;;;;;20.80;101233.00;;;;2046471;28;20224;-54
2021/05/31 03:31:38;;;;;;;5.37;4.87;;;;;20.80;101237.00;;;;2049163;28;20248;-51
2021/05/31 03:32:39;;;;;;;6.50;5.90;;;;;20.80;101237.00;;;;2050024;28;20232;-52
2021/05/31 03:33:39;;;;;;;5.70;5.17;;;;;20.80;101237.00;;;;2054258;28;20266;-53
2021/05/31 03:34:39;;;;;;;5.40;5.00;;;;;20.80;101241.00;;;;2054390;28;20271;-54
2021/05/31 03:35:40;;;;;;;4.90;4.50;;;;;20.80;101234.00;;;;2053704;28;20362;-53
2021/05/31 03:36:40;;;;;;;5.30;4.90;;;;;20.80;101233.00;;;;2052588;28;20223;-54
2021/05/31 03:37:40;;;;;;;5.00;4.60;;;;;20.80;101238.00;;;;2051280;28;20231;-53
2021/05/31 03:38:41;;;;;;;4.90;4.50;;;;;20.80;101233.00;;;;2053913;28;20311;-52
2021/05/31 03:39:42;;;;;;;5.37;4.87;;;;;20.80;101235.00;;;;2053604;28;20370;-49
2021/05/31 03:40:42;;;;;;;5.05;4.65;;;;;20.80;101240.00;;;;2053576;28;20227;-53
2021/05/31 03:41:43;;;;;;;5.70;5.20;;;;;20.80;101241.00;;;;2052582;28;20359;-51
2021/05/31 03:42:43;;;;;;;5.60;5.17;;;;;20.80;101246.00;;;;2054061;28;20240;-52
2021/05/31 03:43:44;;;;;;;5.60;5.10;;;;;20.80;101246.00;;;;2054069;28;20290;-53
2021/05/31 03:44:44;;;;;;;5.03;4.63;;;;;20.80;101245.00;;;;2054231;28;20222;-54
2021/05/31 03:45:44;;;;;;;5.57;5.07;;;;;20.80;101248.00;;;;2054120;28;20212;-53
2021/05/31 03:46:45;;;;;;;5.30;4.90;;;;;20.80;101255.00;;;;2053092;28;20721;-52
2021/05/31 03:47:45;;;;;;;5.70;5.20;;;;;20.80;101246.00;;;;2054285;28;20693;-52
2021/05/31 03:48:45;;;;;;;5.23;4.83;;;;;20.80;101243.00;;;;2053552;28;20743;-53
2021/05/31 03:49:47;;;;;;;5.37;4.97;;;;;20.80;101251.00;;;;2053404;28;20213;-54
2021/05/31 03:50:47;;;;;;;5.30;4.90;;;;;20.80;101248.00;;;;2053687;28;20216;-52
2021/05/31 03:51:47;;;;;;;5.13;4.73;;;;;20.80;101244.00;;;;2052526;28;20223;-51
2021/05/31 03:52:49;;;;;;;5.50;5.10;;;;;20.80;101247.00;;;;2053540;28;20335;-51
2021/05/31 03:53:49;;;;;;;5.45;4.95;;;;;20.80;101247.00;;;;2052516;28;20212;-55
2021/05/31 03:54:50;;;;;;;5.40;5.00;;;;;20.80;101232.00;;;;2054433;28;20227;-54
2021/05/31 03:55:50;;;;;;;4.90;4.50;;;;;20.80;101246.00;;;;2053274;28;20228;-58
2021/05/31 03:56:50;;;;;;;5.20;4.80;;;;;20.80;101247.00;;;;2055000;28;20220;-58
2021/05/31 03:57:51;;;;;;;4.80;4.50;;;;;20.80;101249.00;;;;2055294;28;20216;-56
2021/05/31 03:58:52;;;;;;;5.50;5.10;;;;;20.80;101250.00;;;;2055029;28;20275;-51
2021/05/31 03:59:53;;;;;;;5.30;4.80;;;;;20.80;101244.00;;;;2050331;28;20217;-53
2021/05/31 04:00:53;;;;;;;4.80;4.50;;;;;20.80;101248.00;;;;2050022;28;20390;-51
2021/05/31 04:01:54;;;;;;;5.47;5.03;;;;;20.80;101251.00;;;;2050617;28;20739;-53
2021/05/31 04:02:54;;;;;;;5.63;5.03;;;;;20.80;101249.00;;;;2039079;29;20257;-51
2021/05/31 04:03:55;;;;;;;5.20;4.80;;;;;20.80;101234.00;;;;2038625;29;20910;-53
2021/05/31 04:04:56;;;;;;;5.30;4.63;;;;;20.80;101245.00;;;;2038461;29;20230;-53
2021/05/31 04:11:33;;;;;;;4.85;4.45;;;;;20.80;101238.00;;;;2047371;28;20213;-53
2021/05/31 04:12:17;;;;;;;4.88;4.57;;;;;20.80;101258.00;;;;2055079;28;20208;-54
2021/05/31 04:13:17;;;;;;;4.80;4.40;;;;;20.80;101244.00;;;;2054978;28;21377;-51
2021/05/31 04:14:18;;;;;;;5.80;5.20;;;;;20.80;101253.00;;;;2055136;28;20212;-53
2021/05/31 04:15:18;;;;;;;5.00;4.60;;;;;20.80;101252.00;;;;2054931;28;20224;-54
2021/05/31 04:16:19;;;;;;;5.10;4.70;;;;;20.80;101251.00;;;;2054908;28;20463;-53
2021/05/31 04:17:19;;;;;;;5.10;4.70;;;;;20.80;101245.00;;;;2055300;28;20677;-54
2021/05/31 04:18:20;;;;;;;5.50;4.97;;;;;20.80;101250.00;;;;2054939;28;20699;-54
2021/05/31 04:19:20;;;;;;;5.33;4.93;;;;;20.80;101246.00;;;;2054790;28;20220;-53
2021/05/31 04:20:22;;;;;;;5.30;4.80;;;;;20.80;101252.00;;;;2054674;28;20220;-54
2021/05/31 04:21:23;;;;;;;4.85;4.45;;;;;20.80;101249.00;;;;2054107;28;20450;-53
2021/05/31 04:22:23;;;;;;;5.37;4.90;;;;;20.80;101250.00;;;;2054618;28;20212;-54
2021/05/31 04:23:23;;;;;;;5.87;5.27;;;;;20.80;101243.00;;;;2054665;28;20224;-54
2021/05/31 04:24:24;;;;;;;5.30;4.80;;;;;20.80;101247.00;;;;2054827;28;20216;-54
2021/05/31 04:25:25;;;;;;;4.93;4.53;;;;;20.80;101251.00;;;;2048711;28;20299;-51
2021/05/31 04:26:25;;;;;;;5.27;4.80;;;;;20.80;101246.00;;;;2046977;28;20303;-58
2021/05/31 04:27:25;;;;;;;4.67;4.27;;;;;20.80;101240.00;;;;2047028;28;20585;-57
2021/05/31 04:28:26;;;;;;;5.40;4.80;;;;;20.80;101243.00;;;;2045885;28;20221;-56
2021/05/31 04:29:26;;;;;;;5.10;4.70;;;;;20.80;101246.00;;;;2047365;28;20216;-56
2021/05/31 04:30:26;;;;;;;4.90;4.50;;;;;20.80;101247.00;;;;2048699;28;20315;-53
2021/05/31 04:31:27;;;;;;;4.80;4.40;;;;;20.80;101238.00;;;;2047865;28;20583;-52
2021/05/31 04:32:27;;;;;;;5.03;4.63;;;;;20.80;101238.00;;;;2048078;28;20221;-53
2021/05/31 04:33:27;;;;;;;5.33;4.80;;;;;20.80;101236.00;;;;2046706;28;20221;-51
2021/05/31 04:34:28;;;;;;;4.97;4.57;;;;;20.80;101238.00;;;;2046842;28;20220;-52
2021/05/31 04:35:28;;;;;;;5.70;5.20;;;;;20.80;101240.00;;;;2046456;28;20236;-53
2021/05/31 04:36:28;;;;;;;5.30;4.90;;;;;20.80;101240.00;;;;2046960;28;20303;-52
2021/05/31 04:37:30;;;;;;;4.90;4.50;;;;;20.80;101235.00;;;;2046815;28;20212;-54
2021/05/31 04:38:31;;;;;;;4.72;4.32;;;;;20.80;101239.00;;;;2046871;28;20213;-53
2021/05/31 04:39:31;;;;;;;5.00;4.60;;;;;20.80;101238.00;;;;2046661;28;20239;-54
2021/05/31 04:40:31;;;;;;;4.67;4.27;;;;;20.80;101234.00;;;;2046998;28;20240;-54
2021/05/31 04:41:32;;;;;;;5.00;4.67;;;;;20.80;101236.00;;;;2046329;28;20215;-54
2021/05/31 04:42:33;;;;;;;5.78;5.32;;;;;20.80;101241.00;;;;2046997;28;20724;-52
2021/05/31 04:43:34;;;;;;;4.77;4.47;;;;;20.80;101237.00;;;;2047146;28;20308;-53
2021/05/31 04:44:34;;;;;;;5.13;4.73;;;;;20.80;101242.00;;;;2047299;28;21037;-54
2021/05/31 04:45:35;;;;;;;5.17;4.77;;;;;20.80;101243.00;;;;2047369;28;20240;-51
2021/05/31 04:46:35;;;;;;;4.70;4.30;;;;;20.80;101245.00;;;;2047338;28;20209;-53
2021/05/31 04:47:35;;;;;;;4.97;4.57;;;;;20.80;101239.00;;;;2028298;29;20206;-55
2021/05/31 04:48:36;;;;;;;4.93;4.53;;;;;20.80;101245.00;;;;2030943;29;20206;-54
2021/05/31 04:49:36;;;;;;;4.83;4.43;;;;;20.80;101245.00;;;;2047406;29;20570;-52
2021/05/31 04:50:36;;;;;;;5.60;5.10;;;;;20.80;101245.00;;;;2047322;28;20224;-52
2021/05/31 04:51:38;;;;;;;4.57;4.17;;;;;20.80;101241.00;;;;2046536;28;20236;-51
2021/05/31 04:52:38;;;;;;;5.18;4.78;;;;;20.80;101238.00;;;;2046734;28;20308;-56
2021/05/31 04:53:39;;;;;;;4.90;4.50;;;;;20.80;101239.00;;;;2047108;28;20552;-55
2021/05/31 04:54:41;;;;;;;5.33;4.87;;;;;20.80;101240.00;;;;2048814;28;20209;-51
2021/05/31 04:55:41;;;;;;;5.22;4.78;;;;;20.80;101241.00;;;;2055272;28;20228;-50
2021/05/31 04:56:42;;;;;;;5.33;4.83;;;;;20.80;101233.00;;;;2055030;28;20328;-53
2021/05/31 04:57:43;;;;;;;4.90;4.50;;;;;20.80;101238.00;;;;2055331;28;20613;-54
2021/05/31 04:58:43;;;;;;;4.97;4.55;;;;;20.80;101238.00;;;;2055146;28;20208;-52
2021/05/31 04:59:43;;;;;;;5.03;4.63;;;;;20.80;101249.00;;;;2051296;28;20780;-54
2021/05/31 05:00:44;;;;;;;4.87;4.57;;;;;20.80;101237.00;;;;2047650;28;20216;-54
2021/05/31 05:01:44;;;;;;;8.20;5.00;;;;;20.80;101239.00;;;;2046564;28;20217;-54
2021/05/31 05:02:44;;;;;;;5.30;4.90;;;;;20.80;101238.00;;;;2050312;28;20209;-54
2021/05/31 05:03:45;;;;;;;4.93;4.53;;;;;20.80;101238.00;;;;2047202;28;20217;-54
2021/05/31 05:04:45;;;;;;;5.43;4.93;;;;;20.80;101243.00;;;;2047196;28;20217;-52
2021/05/31 05:05:46;;;;;;;5.10;4.70;;;;;20.80;101237.00;;;;2046765;28;20690;-53
2021/05/31 05:06:46;;;;;;;5.33;4.40;;;;;20.80;101230.00;;;;2046902;28;20768;-54
2021/05/31 05:07:47;;;;;;;5.60;5.13;;;;;20.80;101237.00;;;;2046416;28;20327;-54
2021/05/31 05:08:50;;;;;;;4.90;4.43;;;;;20.80;101229.00;;;;2047175;28;20223;-50